Time,TemperatureF,DewpointF,PressureIn,WindDirection,WindDirectionDegrees,WindSpeedMPH,WindSpeedGustMPH,Humidity,HourlyPrecipIn,Conditions,Clouds,dailyrainin,SoftwareType,DateUTC
2013-04-23 00:02:00,36.4,33.9,30.24,North,5,8.4,18.2,90,0.00,,,-99.99,Meteorologica,2013-04-23 05:02:00,
2013-04-23 00:07:00,36.3,33.8,30.22,NNW,345,8.9,18.8,90,0.00,,,-99.99,Meteorologica,2013-04-23 05:07:00,
2013-04-23 00:12:00,35.8,33.3,30.20,SSE,154,12.6,20.2,90,0.00,,,-99.99,Meteorologica,2013-04-23 05:12:00,
2013-04-23 00:17:00,35.6,33.3,30.19,SW,234,9.0,21.3,91,0.00,,,-99.99,Meteorologica,2013-04-23 05:17:00,
2013-04-23 00:22:00,35.4,33.1,30.17,ESE,120,11.6,17.7,91,0.00,,,-99.99,Meteorologica,2013-04-23 05:22:00,
2013-04-23 00:27:00,35.3,33.0,30.16,NNW,341,10.0,20.5,91,0.00,,,-99.99,Meteorologica,2013-04-23 05:27:00,
2013-04-23 00:32:00,35.2,32.8,30.17,North,5,12.2,19.8,91,0.00,,,-99.99,Meteorologica,2013-04-23 05:32:00,
2013-04-23 00:37:00,35.3,32.9,30.16,NNE,24,7.2,28.3,91,0.00,,,-99.99,Meteorologica,2013-04-23 05:37:00,
2013-04-23 00:42:00,35.0,32.6,30.15,NNE,18,13.8,16.7,90,0.00,,,-99.99,Meteorologica,2013-04-23 05:42:00,
2013-04-23 00:47:00,35.3,33.0,30.18,ESE,122,8.6,13.8,91,0.00,,,-99.99,Meteorologica,2013-04-23 05:47:00,
2013-04-23 00:52:00,35.3,32.9,30.18,NE,40,6.7,14.6,91,0.00,,,-99.99,Meteorologica,2013-04-23 05:52:00,
2013-04-23 00:57:00,35.3,32.9,30.19,NNE,16,8.1,12.5,90,0.00,,,-99.99,Meteorologica,2013-04-23 05:57:00,
2013-04-23 01:02:00,35.4,32.9,30.20,NE,47,7.5,11.5,90,0.00,,,-99.99,Meteorologica,2013-04-23 06:02:00,
2013-04-23 01:07:00,35.5,33.1,30.21,SE,138,6.1,14.6,91,0.00,,,-99.99,Meteorologica,2013-04-23 06:07:00,
2013-04-23 01:12:00,35.5,33.1,30.22,SW,231,8.0,10.6,91,0.00,,,-99.99,Meteorologica,2013-04-23 06:12:00,
2013-04-23 01:17:00,35.5,33.0,30.20,WSW,250,7.7,15.6,90,0.00,,,-99.99,Meteorologica,2013-04-23 06:17:00,
2013-04-23 01:22:00,35.3,32.8,30.21,NNW,338,9.6,17.7,90,0.00,,,-99.99,Meteorologica,2013-04-23 06:22:00,
2013-04-23 01:27:00,35.4,32.9,30.23,ESE,120,8.4,12.1,90,0.00,,,-99.99,Meteorologica,2013-04-23 06:27:00,
2013-04-23 01:32:00,35.4,32.8,30.22,SE,127,7.9,15.2,90,0.00,,,-99.99,Meteorologica,2013-04-23 06:32:00,
2013-04-23 01:37:00,35.2,32.5,30.20,NNW,335,11.1,16.8,90,0.00,,,-99.99,Meteorologica,2013-04-23 06:37:00,
2013-04-23 01:42:00,35.1,32.6,30.18,NNW,341,10.6,16.7,90,0.00,,,-99.99,Meteorologica,2013-04-23 06:42:00,
2013-04-23 01:47:00,35.1,32.8,30.18,NE,42,8.8,15.1,91,0.00,,,-99.99,Meteorologica,2013-04-23 06:47:00,
2013-04-23 01:52:00,34.8,32.5,30.20,NNE,31,6.2,14.3,91,0.00,,,-99.99,Meteorologica,2013-04-23 06:52:00,
2013-04-23 01:57:00,34.5,32.3,30.20,SE,136,10.4,18.7,91,0.00,,,-99.99,Meteorologica,2013-04-23 06:57:00,
2013-04-23 02:02:00,34.3,31.9,30.23,SW,230,10.3,21.1,91,0.00,,,-99.99,Meteorologica,2013-04-23 07:02:00,
2013-04-23 02:07:00,34.4,32.2,30.24,NNE,20,8.2,11.6,91,0.00,,,-99.99,Meteorologica,2013-04-23 07:07:00,
2013-04-23 02:12:00,34.3,32.0,30.24,WSW,240,8.6,14.1,91,0.00,,,-99.99,Meteorologica,2013-04-23 07:12:00,
2013-04-23 02:17:00,34.3,32.1,30.24,NNW,343,8.4,17.0,91,0.00,,,-99.99,Meteorologica,2013-04-23 07:17:00,
2013-04-23 02:22:00,34.0,31.7,30.22,NE,44,8.4,18.5,91,0.00,,,-99.99,Meteorologica,2013-04-23 07:22:00,
2013-04-23 02:27:00,34.1,31.9,30.21,SE,125,8.2,12.7,91,0.00,,,-99.99,Meteorologica,2013-04-23 07:27:00,
2013-04-23 02:32:00,34.0,31.8,30.22,SW,231,7.9,14.3,91,0.00,,,-99.99,Meteorologica,2013-04-23 07:32:00,
2013-04-23 02:37:00,33.9,31.8,30.22,North,7,9.2,14.1,92,0.00,,,-99.99,Meteorologica,2013-04-23 07:37:00,
2013-04-23 02:42:00,33.9,32.0,30.24,WSW,244,9.4,14.3,92,0.00,,,-99.99,Meteorologica,2013-04-23 07:42:00,
2013-04-23 02:47:00,33.6,31.9,30.22,NNW,343,10.0,18.5,93,0.00,,,-99.99,Meteorologica,2013-04-23 07:47:00,
2013-04-23 02:52:00,33.4,32.0,30.21,NNE,12,6.1,17.5,94,0.00,,,-99.99,Meteorologica,2013-04-23 07:52:00,
2013-04-23 02:57:00,32.9,31.6,30.20,SW,234,9.8,13.6,95,0.00,,,-99.99,Meteorologica,2013-04-23 07:57:00,
2013-04-23 03:02:00,32.5,31.3,30.21,NNW,347,10.3,15.5,95,0.00,,,-99.99,Meteorologica,2013-04-23 08:02:00,
2013-04-23 03:07:00,32.5,31.3,30.19,WSW,239,7.9,18.8,95,0.00,,,-99.99,Meteorologica,2013-04-23 08:07:00,
2013-04-23 03:12:00,32.3,31.2,30.19,NNE,17,9.5,14.9,95,0.00,,,-99.99,Meteorologica,2013-04-23 08:12:00,
2013-04-23 03:17:00,32.3,31.2,30.20,WSW,242,6.8,12.6,95,0.00,,,-99.99,Meteorologica,2013-04-23 08:17:00,
2013-04-23 03:22:00,32.4,31.3,30.20,North,11,4.3,12.3,96,0.00,,,-99.99,Meteorologica,2013-04-23 08:22:00,
2013-04-23 03:27:00,32.3,31.2,30.21,NE,39,7.9,11.3,96,0.00,,,-99.99,Meteorologica,2013-04-23 08:27:00,
2013-04-23 03:32:00,32.3,31.2,30.20,WSW,240,6.1,12.6,96,0.00,,,-99.99,Meteorologica,2013-04-23 08:32:00,
2013-04-23 03:37:00,32.3,31.2,30.21,SW,224,5.7,13.0,96,0.00,,,-99.99,Meteorologica,2013-04-23 08:37:00,
2013-04-23 03:42:00,32.2,31.1,30.21,North,8,8.9,14.8,96,0.00,,,-99.99,Meteorologica,2013-04-23 08:42:00,
2013-04-23 03:47:00,32.2,31.1,30.20,North,8,7.8,10.8,96,0.00,,,-99.99,Meteorologica,2013-04-23 08:47:00,
2013-04-23 03:52:00,32.1,31.1,30.20,North,349,5.7,9.9,96,0.00,,,-99.99,Meteorologica,2013-04-23 08:52:00,
2013-04-23 03:57:00,31.9,30.8,30.19,NNE,23,9.0,13.2,95,0.00,,,-99.99,Meteorologica,2013-04-23 08:57:00,
2013-04-23 04:02:00,31.9,30.8,30.19,North,4,5.1,10.3,95,0.00,,,-99.99,Meteorologica,2013-04-23 09:02:00,
2013-04-23 04:07:00,31.9,30.8,30.19,NNE,25,7.7,10.2,95,0.00,,,-99.99,Meteorologica,2013-04-23 09:07:00,
2013-04-23 04:12:00,31.7,30.7,30.18,NE,54,7.3,15.1,96,0.00,,,-99.99,Meteorologica,2013-04-23 09:12:00,
2013-04-23 04:17:00,31.8,30.8,30.18,NNE,31,6.0,12.6,96,0.00,,,-99.99,Meteorologica,2013-04-23 09:17:00,
2013-04-23 04:22:00,31.8,30.8,30.18,SE,129,6.2,12.2,96,0.00,,,-99.99,Meteorologica,2013-04-23 09:22:00,
2013-04-23 04:27:00,31.8,30.7,30.20,NNW,335,7.3,12.2,95,0.00,,,-99.99,Meteorologica,2013-04-23 09:27:00,
2013-04-23 04:32:00,31.8,30.7,30.19,ESE,115,6.5,13.0,95,0.00,,,-99.99,Meteorologica,2013-04-23 09:32:00,
2013-04-23 04:37:00,31.8,30.6,30.19,NNE,14,9.0,12.8,95,0.00,,,-99.99,Meteorologica,2013-04-23 09:37:00,
2013-04-23 04:42:00,31.5,30.2,30.18,NNW,329,10.8,17.1,95,0.00,,,-99.99,Meteorologica,2013-04-23 09:42:00,
2013-04-23 04:47:00,31.5,30.1,30.19,WSW,240,6.1,13.0,94,0.00,,,-99.99,Meteorologica,2013-04-23 09:47:00,
2013-04-23 04:52:00,31.5,30.1,30.18,SE,135,7.7,15.4,94,0.00,,,-99.99,Meteorologica,2013-04-23 09:52:00,
2013-04-23 04:57:00,31.4,30.0,30.18,North,7,5.3,13.3,94,0.00,,,-99.99,Meteorologica,2013-04-23 09:57:00,
2013-04-23 05:02:00,31.4,30.0,30.18,NNW,343,6.3,13.4,94,0.00,,,-99.99,Meteorologica,2013-04-23 10:02:00,
2013-04-23 05:07:00,31.4,30.1,30.19,NE,39,7.7,11.4,94,0.00,,,-99.99,Meteorologica,2013-04-23 10:07:00,
2013-04-23 05:12:00,31.2,29.8,30.18,North,355,8.0,14.4,94,0.00,,,-99.99,Meteorologica,2013-04-23 10:12:00,
2013-04-23 05:17:00,31.4,30.0,30.16,SE,143,7.4,16.1,94,0.00,,,-99.99,Meteorologica,2013-04-23 10:17:00,
2013-04-23 05:22:00,31.3,29.9,30.16,SE,139,8.5,13.8,94,0.00,,,-99.99,Meteorologica,2013-04-23 10:22:00,
2013-04-23 05:27:00,31.3,29.9,30.17,SE,127,8.6,16.5,94,0.00,,,-99.99,Meteorologica,2013-04-23 10:27:00,
2013-04-23 05:32:00,31.3,29.9,30.17,NNE,29,10.0,13.8,94,0.00,,,-99.99,Meteorologica,2013-04-23 10:32:00,
2013-04-23 05:37:00,31.3,29.8,30.17,NNE,13,7.3,12.9,94,0.00,,,-99.99,Meteorologica,2013-04-23 10:37:00,
2013-04-23 05:42:00,31.3,29.9,30.16,NNE,26,6.8,12.9,94,0.00,,,-99.99,Meteorologica,2013-04-23 10:42:00,
2013-04-23 05:47:00,31.3,29.8,30.17,SE,125,8.5,13.1,94,0.00,,,-99.99,Meteorologica,2013-04-23 10:47:00,
2013-04-23 05:52:00,31.4,29.9,30.18,WSW,250,7.4,10.0,94,0.00,,,-99.99,Meteorologica,2013-04-23 10:52:00,
2013-04-23 05:57:00,31.5,30.0,30.19,NE,44,5.7,9.2,94,0.00,,,-99.99,Meteorologica,2013-04-23 10:57:00,
2013-04-23 06:02:00,31.5,29.9,30.18,ESE,119,7.3,11.6,93,0.00,,,-99.99,Meteorologica,2013-04-23 11:02:00,
2013-04-23 06:07:00,31.6,29.8,30.17,NE,45,7.8,12.3,93,0.00,,,-99.99,Meteorologica,2013-04-23 11:07:00,
2013-04-23 06:12:00,31.5,29.8,30.20,WSW,239,7.4,13.3,93,0.00,,,-99.99,Meteorologica,2013-04-23 11:12:00,
2013-04-23 06:17:00,31.5,29.9,30.20,North,11,7.1,11.7,93,0.00,,,-99.99,Meteorologica,2013-04-23 11:17:00,
2013-04-23 06:22:00,31.5,30.0,30.19,NNE,15,7.5,11.3,94,0.00,,,-99.99,Meteorologica,2013-04-23 11:22:00,
2013-04-23 06:27:00,31.3,29.9,30.20,North,359,7.1,12.7,94,0.00,,,-99.99,Meteorologica,2013-04-23 11:27:00,
2013-04-23 06:32:00,31.1,29.8,30.20,SW,214,5.8,10.7,94,0.00,,,-99.99,Meteorologica,2013-04-23 11:32:00,
2013-04-23 06:37:00,30.9,29.6,30.20,NE,36,7.1,11.8,95,0.00,,,-99.99,Meteorologica,2013-04-23 11:37:00,
2013-04-23 06:42:00,30.8,29.5,30.20,NNW,336,10.1,14.0,95,0.00,,,-99.99,Meteorologica,2013-04-23 11:42:00,
2013-04-23 06:47:00,30.5,29.2,30.21,ESE,116,9.0,14.3,95,0.00,,,-99.99,Meteorologica,2013-04-23 11:47:00,
2013-04-23 06:52:00,30.5,29.2,30.21,North,359,9.5,15.8,95,0.00,,,-99.99,Meteorologica,2013-04-23 11:52:00,
2013-04-23 06:57:00,30.6,29.4,30.21,NNE,20,7.3,11.9,95,0.00,,,-99.99,Meteorologica,2013-04-23 11:57:00,
2013-04-23 07:02:00,30.6,29.4,30.21,ESE,123,8.4,13.5,95,0.00,,,-99.99,Meteorologica,2013-04-23 12:02:00,
2013-04-23 07:07:00,30.5,29.3,30.21,ESE,114,6.8,14.8,95,0.00,,,-99.99,Meteorologica,2013-04-23 12:07:00,
2013-04-23 07:12:00,30.4,29.2,30.21,North,357,7.7,13.9,95,0.00,,,-99.99,Meteorologica,2013-04-23 12:12:00,
2013-04-23 07:17:00,30.4,29.2,30.23,North,351,6.9,10.3,95,0.00,,,-99.99,Meteorologica,2013-04-23 12:17:00,
2013-04-23 07:22:00,30.4,29.2,30.24,SW,225,6.5,10.5,95,0.00,,,-99.99,Meteorologica,2013-04-23 12:22:00,
2013-04-23 07:27:00,30.3,29.1,30.24,NNW,348,6.3,11.3,95,0.00,,,-99.99,Meteorologica,2013-04-23 12:27:00,
2013-04-23 07:32:00,30.3,29.2,30.22,NE,44,6.0,8.1,95,0.00,,,-99.99,Meteorologica,2013-04-23 12:32:00,
2013-04-23 07:37:00,30.4,29.3,30.22,SE,126,4.5,11.0,95,0.00,,,-99.99,Meteorologica,2013-04-23 12:37:00,
2013-04-23 07:43:00,30.5,29.4,30.20,NNE,23,6.4,8.6,95,0.00,,,-99.99,Meteorologica,2013-04-23 12:43:00,
2013-04-23 07:48:00,30.4,29.2,30.20,SW,230,6.0,7.8,95,0.00,,,-99.99,Meteorologica,2013-04-23 12:48:00,
2013-04-23 07:53:00,30.5,29.3,30.20,SE,143,5.9,9.7,95,0.00,,,-99.99,Meteorologica,2013-04-23 12:53:00,
2013-04-23 07:58:00,30.4,29.2,30.20,WSW,241,8.7,9.9,95,0.00,,,-99.99,Meteorologica,2013-04-23 12:58:00,
2013-04-23 08:03:00,30.3,29.1,30.20,NNW,340,6.8,10.4,95,0.00,,,-99.99,Meteorologica,2013-04-23 13:03:00,
2013-04-23 08:08:00,30.5,29.4,30.21,SE,141,6.4,7.3,95,0.00,,,-99.99,Meteorologica,2013-04-23 13:08:00,
2013-04-23 08:13:00,30.6,29.5,30.21,SE,127,7.1,8.5,95,0.00,,,-99.99,Meteorologica,2013-04-23 13:13:00,
2013-04-23 08:18:00,30.7,29.5,30.22,NE,45,3.6,4.7,95,0.00,,,-99.99,Meteorologica,2013-04-23 13:18:00,
2013-04-23 08:23:00,30.6,29.4,30.22,SW,230,3.2,5.1,95,0.00,,,-99.99,Meteorologica,2013-04-23 13:23:00,
2013-04-23 08:28:00,30.6,29.4,30.22,NNE,31,6.5,9.4,95,0.00,,,-99.99,Meteorologica,2013-04-23 13:28:00,
2013-04-23 08:33:00,30.5,29.1,30.23,SE,141,6.2,11.0,94,0.00,,,-99.99,Meteorologica,2013-04-23 13:33:00,
2013-04-23 08:38:00,30.5,29.0,30.22,NNE,31,6.4,7.1,94,0.00,,,-99.99,Meteorologica,2013-04-23 13:38:00,
2013-04-23 08:43:00,30.5,29.0,30.23,SE,132,5.9,6.4,94,0.00,,,-99.99,Meteorologica,2013-04-23 13:43:00,
2013-04-23 08:48:00,30.6,29.0,30.23,North,355,7.1,9.3,93,0.00,,,-99.99,Meteorologica,2013-04-23 13:48:00,
2013-04-23 08:53:00,30.6,28.9,30.24,North,0,6.4,9.9,93,0.00,,,-99.99,Meteorologica,2013-04-23 13:53:00,
2013-04-23 08:58:00,30.8,29.1,30.24,SE,136,4.9,11.3,93,0.00,,,-99.99,Meteorologica,2013-04-23 13:58:00,
2013-04-23 09:03:00,30.8,29.1,30.23,ESE,120,6.9,11.0,93,0.00,,,-99.99,Meteorologica,2013-04-23 14:03:00,
2013-04-23 09:08:00,30.9,29.2,30.23,NNW,331,7.8,11.9,93,0.00,,,-99.99,Meteorologica,2013-04-23 14:08:00,
2013-04-23 09:13:00,31.0,29.2,30.22,WSW,237,8.1,9.5,93,0.00,,,-99.99,Meteorologica,2013-04-23 14:13:00,
2013-04-23 09:18:00,31.0,29.1,30.21,SE,135,8.1,9.9,92,0.00,,,-99.99,Meteorologica,2013-04-23 14:18:00,
2013-04-23 09:23:00,31.1,29.1,30.21,SW,234,8.8,13.3,92,0.00,,,-99.99,Meteorologica,2013-04-23 14:23:00,
2013-04-23 09:28:00,31.2,29.1,30.21,SW,232,7.9,11.9,92,0.00,,,-99.99,Meteorologica,2013-04-23 14:28:00,
2013-04-23 09:33:00,31.3,29.1,30.22,North,9,8.8,11.1,91,0.00,,,-99.99,Meteorologica,2013-04-23 14:33:00,
2013-04-23 09:38:00,31.6,29.5,30.21,NNE,14,9.1,18.3,91,0.00,,,-99.99,Meteorologica,2013-04-23 14:38:00,
2013-04-23 09:43:00,31.9,29.6,30.22,NNE,24,7.7,10.5,91,0.00,,,-99.99,Meteorologica,2013-04-23 14:43:00,
2013-04-23 09:48:00,32.3,29.9,30.22,NNW,343,8.5,13.5,90,0.00,,,-99.99,Meteorologica,2013-04-23 14:48:00,
2013-04-23 09:53:00,32.4,29.9,30.22,North,11,8.4,11.9,90,0.00,,,-99.99,Meteorologica,2013-04-23 14:53:00,
2013-04-23 09:58:00,32.6,29.9,30.22,SW,231,7.1,12.0,90,0.00,,,-99.99,Meteorologica,2013-04-23 14:58:00,
2013-04-23 10:03:00,32.7,30.0,30.22,ESE,120,9.9,14.1,90,0.00,,,-99.99,Meteorologica,2013-04-23 15:03:00,
2013-04-23 10:08:00,32.9,30.2,30.22,NNE,19,6.9,11.7,89,0.00,,,-99.99,Meteorologica,2013-04-23 15:08:00,
2013-04-23 10:13:00,33.1,30.3,30.22,North,356,6.6,9.8,89,0.00,,,-99.99,Meteorologica,2013-04-23 15:13:00,
2013-04-23 10:18:00,33.2,30.5,30.22,SW,234,8.5,12.3,89,0.00,,,-99.99,Meteorologica,2013-04-23 15:18:00,
2013-04-23 10:23:00,33.3,30.6,30.23,ESE,116,6.6,9.4,90,0.00,,,-99.99,Meteorologica,2013-04-23 15:23:00,
2013-04-23 10:28:00,33.4,30.7,30.22,WSW,241,7.1,9.9,89,0.00,,,-99.99,Meteorologica,2013-04-23 15:28:00,
2013-04-23 10:33:00,33.4,30.5,30.22,NNE,14,5.9,8.2,89,0.00,,,-99.99,Meteorologica,2013-04-23 15:33:00,
2013-04-23 10:38:00,33.4,30.4,30.23,SE,141,7.9,10.7,88,0.00,,,-99.99,Meteorologica,2013-04-23 15:38:00,
2013-04-23 10:43:00,33.6,30.6,30.23,NNE,29,7.7,12.5,88,0.00,,,-99.99,Meteorologica,2013-04-23 15:43:00,
2013-04-23 10:48:00,33.7,30.6,30.23,SE,136,6.3,9.7,88,0.00,,,-99.99,Meteorologica,2013-04-23 15:48:00,
2013-04-23 10:53:00,33.7,30.8,30.23,NNW,338,7.2,10.5,89,0.00,,,-99.99,Meteorologica,2013-04-23 15:53:00,
2013-04-23 10:58:00,33.6,30.4,30.22,SE,126,5.9,8.9,88,0.00,,,-99.99,Meteorologica,2013-04-23 15:58:00,
2013-04-23 11:03:00,33.7,30.4,30.23,NNW,341,7.7,10.0,87,0.00,,,-99.99,Meteorologica,2013-04-23 16:03:00,
2013-04-23 11:08:00,33.7,30.5,30.24,NNW,342,5.3,7.7,88,0.00,,,-99.99,Meteorologica,2013-04-23 16:08:00,
2013-04-23 11:13:00,33.8,30.2,30.24,ESE,120,8.8,9.7,86,0.00,,,-99.99,Meteorologica,2013-04-23 16:13:00,
2013-04-23 11:18:00,33.8,30.4,30.23,SW,233,7.6,11.2,87,0.00,,,-99.99,Meteorologica,2013-04-23 16:18:00,
2013-04-23 11:23:00,33.9,30.2,30.22,NNE,15,5.6,6.1,86,0.00,,,-99.99,Meteorologica,2013-04-23 16:23:00,
2013-04-23 11:28:00,34.0,30.5,30.23,SE,141,6.0,8.2,87,0.00,,,-99.99,Meteorologica,2013-04-23 16:28:00,
2013-04-23 11:33:00,34.1,30.6,30.23,NNW,345,4.4,4.5,86,0.00,,,-99.99,Meteorologica,2013-04-23 16:33:00,
2013-04-23 11:38:00,34.1,30.5,30.23,NNW,329,6.0,10.7,86,0.00,,,-99.99,Meteorologica,2013-04-23 16:38:00,
2013-04-23 11:43:00,34.3,30.9,30.23,NNW,336,3.3,6.3,87,0.00,,,-99.99,Meteorologica,2013-04-23 16:43:00,
2013-04-23 11:48:00,34.5,30.5,30.23,NNW,333,6.8,11.7,85,0.00,,,-99.99,Meteorologica,2013-04-23 16:48:00,
2013-04-23 11:53:00,34.6,30.7,30.23,North,5,4.3,5.0,85,0.00,,,-99.99,Meteorologica,2013-04-23 16:53:00,
2013-04-23 11:58:00,34.6,30.4,30.23,WSW,243,6.1,10.0,84,0.00,,,-99.99,Meteorologica,2013-04-23 16:58:00,
2013-04-23 12:03:00,34.8,31.1,30.24,ESE,115,3.9,7.7,86,0.00,,,-99.99,Meteorologica,2013-04-23 17:03:00,
2013-04-23 12:08:00,34.9,31.2,30.23,WNW,302,4.8,10.2,86,0.00,,,-99.99,Meteorologica,2013-04-23 17:08:00,
2013-04-23 12:13:00,34.8,30.4,30.24,SE,141,6.5,7.5,83,0.00,,,-99.99,Meteorologica,2013-04-23 17:13:00,
2013-04-23 12:18:00,34.8,30.4,30.23,NNE,28,3.8,6.0,84,0.00,,,-99.99,Meteorologica,2013-04-23 17:18:00,
2013-04-23 12:23:00,34.9,30.4,30.23,SW,235,6.8,8.2,83,0.00,,,-99.99,Meteorologica,2013-04-23 17:23:00,
2013-04-23 12:28:00,34.8,29.8,30.24,SW,229,7.9,11.0,81,0.00,,,-99.99,Meteorologica,2013-04-23 17:28:00,
2013-04-23 12:33:00,35.0,30.8,30.23,North,7,3.3,5.3,84,0.00,,,-99.99,Meteorologica,2013-04-23 17:33:00,
2013-04-23 12:38:00,35.0,30.4,30.23,SE,140,4.5,5.2,83,0.00,,,-99.99,Meteorologica,2013-04-23 17:38:00,
2013-04-23 12:43:00,35.1,30.9,30.23,SE,126,4.5,5.6,84,0.00,,,-99.99,Meteorologica,2013-04-23 17:43:00,
2013-04-23 12:48:00,35.3,30.5,30.23,NNE,24,3.8,5.7,82,0.00,,,-99.99,Meteorologica,2013-04-23 17:48:00,
2013-04-23 12:53:00,35.3,30.6,30.22,NNW,339,5.5,6.6,83,0.00,,,-99.99,Meteorologica,2013-04-23 17:53:00,
2013-04-23 12:58:00,35.3,30.8,30.23,SE,134,6.3,10.8,83,0.00,,,-99.99,Meteorologica,2013-04-23 17:58:00,
2013-04-23 13:03:00,35.3,30.1,30.23,NNW,339,9.0,11.6,81,0.00,,,-99.99,Meteorologica,2013-04-23 18:03:00,
2013-04-23 13:08:00,35.5,30.8,30.23,North,6,6.0,9.9,82,0.00,,,-99.99,Meteorologica,2013-04-23 18:08:00,
2013-04-23 13:13:00,35.8,31.0,30.23,North,4,5.5,6.4,82,0.00,,,-99.99,Meteorologica,2013-04-23 18:13:00,
2013-04-23 13:18:00,35.9,31.1,30.23,NNW,347,6.1,6.8,82,0.00,,,-99.99,Meteorologica,2013-04-23 18:18:00,
2013-04-23 13:23:00,35.9,30.9,30.22,North,354,7.0,10.9,80,0.00,,,-99.99,Meteorologica,2013-04-23 18:23:00,
2013-04-23 13:28:00,35.9,30.9,30.22,NNW,329,5.1,6.8,81,0.00,,,-99.99,Meteorologica,2013-04-23 18:28:00,
2013-04-23 13:33:00,36.0,30.3,30.22,NNE,28,6.5,12.4,79,0.00,,,-99.99,Meteorologica,2013-04-23 18:33:00,
2013-04-23 13:38:00,36.2,30.5,30.22,NNE,16,6.8,10.4,79,0.00,,,-99.99,Meteorologica,2013-04-23 18:38:00,
2013-04-23 13:43:00,36.5,31.5,30.22,North,359,4.1,5.3,82,0.00,,,-99.99,Meteorologica,2013-04-23 18:43:00,
2013-04-23 13:48:00,36.7,30.9,30.22,North,352,6.3,7.8,79,0.00,,,-99.99,Meteorologica,2013-04-23 18:48:00,
2013-04-23 13:53:00,36.8,31.1,30.22,NNE,29,5.3,6.6,79,0.00,,,-99.99,Meteorologica,2013-04-23 18:53:00,
2013-04-23 13:58:00,37.0,31.3,30.22,SW,224,5.2,7.2,79,0.00,,,-99.99,Meteorologica,2013-04-23 18:58:00,
2013-04-23 14:03:00,37.1,31.6,30.22,ESE,123,6.2,10.2,80,0.00,,,-99.99,Meteorologica,2013-04-23 19:03:00,
2013-04-23 14:08:00,37.3,31.1,30.22,NW,309,4.6,5.4,78,0.00,,,-99.99,Meteorologica,2013-04-23 19:08:00,
2013-04-23 14:13:00,37.6,31.4,30.22,WSW,252,6.9,9.5,78,0.00,,,-99.99,Meteorologica,2013-04-23 19:13:00,
2013-04-23 14:18:00,37.4,30.9,30.22,North,10,6.3,8.9,76,0.00,,,-99.99,Meteorologica,2013-04-23 19:18:00,
2013-04-23 14:23:00,37.6,31.5,30.21,NNE,29,7.6,9.7,78,0.00,,,-99.99,Meteorologica,2013-04-23 19:23:00,
2013-04-23 14:28:00,37.8,31.7,30.22,NNE,25,3.5,5.5,78,0.00,,,-99.99,Meteorologica,2013-04-23 19:28:00,
2013-04-23 14:33:00,37.9,31.2,30.21,North,350,7.8,10.0,76,0.00,,,-99.99,Meteorologica,2013-04-23 19:33:00,
2013-04-23 14:38:00,38.2,32.8,30.22,North,0,3.5,8.1,80,0.00,,,-99.99,Meteorologica,2013-04-23 19:38:00,
2013-04-23 14:43:00,38.5,32.6,30.21,North,9,3.3,7.1,79,0.00,,,-99.99,Meteorologica,2013-04-23 19:43:00,
2013-04-23 14:48:00,38.5,31.8,30.21,NNE,17,7.4,9.6,77,0.00,,,-99.99,Meteorologica,2013-04-23 19:48:00,
2013-04-23 14:53:00,38.4,32.3,30.21,WSW,238,4.5,6.9,78,0.00,,,-99.99,Meteorologica,2013-04-23 19:53:00,
2013-04-23 14:58:00,38.5,31.4,30.21,North,3,7.4,10.2,74,0.00,,,-99.99,Meteorologica,2013-04-23 19:58:00,
2013-04-23 15:03:00,38.9,32.4,30.21,NNW,335,5.4,7.7,77,0.00,,,-99.99,Meteorologica,2013-04-23 20:03:00,
2013-04-23 15:08:00,39.1,31.7,30.21,North,8,6.6,8.4,74,0.00,,,-99.99,Meteorologica,2013-04-23 20:08:00,
2013-04-23 15:13:00,39.2,31.8,30.20,SE,126,6.5,7.6,74,0.00,,,-99.99,Meteorologica,2013-04-23 20:13:00,
2013-04-23 15:18:00,39.8,32.7,30.20,North,355,4.7,5.7,75,0.00,,,-99.99,Meteorologica,2013-04-23 20:18:00,
2013-04-23 15:23:00,40.2,33.4,30.20,NNW,335,3.1,5.7,76,0.00,,,-99.99,Meteorologica,2013-04-23 20:23:00,
2013-04-23 15:28:00,40.3,33.3,30.20,North,8,2.9,4.3,75,0.00,,,-99.99,Meteorologica,2013-04-23 20:28:00,
2013-04-23 15:33:00,40.6,33.1,30.20,NNE,18,4.7,7.4,74,0.00,,,-99.99,Meteorologica,2013-04-23 20:33:00,
2013-04-23 15:38:00,40.7,33.3,30.20,North,8,4.2,7.4,74,0.00,,,-99.99,Meteorologica,2013-04-23 20:38:00,
2013-04-23 15:43:00,40.3,33.3,30.20,NW,319,4.0,6.2,75,0.00,,,-99.99,Meteorologica,2013-04-23 20:43:00,
2013-04-23 15:48:00,40.3,33.1,30.20,North,3,7.5,10.9,72,0.00,,,-99.99,Meteorologica,2013-04-23 20:48:00,
2013-04-23 15:53:00,40.1,32.0,30.20,NNW,327,7.2,9.7,72,0.00,,,-99.99,Meteorologica,2013-04-23 20:53:00,
2013-04-23 15:58:00,40.6,33.6,30.19,NNW,338,5.0,9.6,75,0.00,,,-99.99,Meteorologica,2013-04-23 20:58:00,
2013-04-23 16:03:00,40.7,32.5,30.19,SW,232,5.5,9.9,72,0.00,,,-99.99,Meteorologica,2013-04-23 21:03:00,
2013-04-23 16:08:00,40.6,32.4,30.19,ESE,118,4.5,8.4,72,0.00,,,-99.99,Meteorologica,2013-04-23 21:08:00,
2013-04-23 16:13:00,40.7,32.5,30.19,NW,319,3.9,6.0,72,0.00,,,-99.99,Meteorologica,2013-04-23 21:13:00,
2013-04-23 16:18:00,40.8,33.5,30.19,NNE,14,1.3,6.0,74,0.00,,,-99.99,Meteorologica,2013-04-23 21:18:00,
2013-04-23 16:23:00,40.7,33.2,30.19,NNW,345,6.5,9.6,74,0.00,,,-99.99,Meteorologica,2013-04-23 21:23:00,
2013-04-23 16:28:00,40.8,33.9,30.19,North,5,4.1,5.3,76,0.00,,,-99.99,Meteorologica,2013-04-23 21:28:00,
2013-04-23 16:33:00,41.2,34.1,30.18,NNE,28,4.1,7.3,75,0.00,,,-99.99,Meteorologica,2013-04-23 21:33:00,
2013-04-23 16:38:00,41.2,33.8,30.18,North,8,2.4,6.1,74,0.00,,,-99.99,Meteorologica,2013-04-23 21:38:00,
2013-04-23 16:43:00,41.4,33.5,30.18,SE,145,4.0,5.0,73,0.00,,,-99.99,Meteorologica,2013-04-23 21:43:00,
2013-04-23 16:48:00,41.2,32.6,30.18,SE,124,5.5,10.3,71,0.00,,,-99.99,Meteorologica,2013-04-23 21:48:00,
2013-04-23 16:53:00,41.2,31.9,30.18,NNW,341,6.0,7.8,69,0.00,,,-99.99,Meteorologica,2013-04-23 21:53:00,
2013-04-23 16:58:00,41.0,32.3,30.18,North,10,4.4,7.1,70,0.00,,,-99.99,Meteorologica,2013-04-23 21:58:00,
2013-04-23 17:03:00,41.0,33.1,30.18,North,8,3.1,5.4,73,0.00,,,-99.99,Meteorologica,2013-04-23 22:03:00,
2013-04-23 17:08:00,40.9,32.5,30.18,SE,124,4.2,7.9,71,0.00,,,-99.99,Meteorologica,2013-04-23 22:08:00,
2013-04-23 17:13:00,41.0,32.5,30.18,NNW,348,3.1,5.5,71,0.00,,,-99.99,Meteorologica,2013-04-23 22:13:00,
2013-04-23 17:18:00,41.0,32.8,30.18,WSW,244,5.3,9.7,72,0.00,,,-99.99,Meteorologica,2013-04-23 22:18:00,
2013-04-23 17:23:00,40.9,31.9,30.17,NNE,16,4.3,6.0,70,0.00,,,-99.99,Meteorologica,2013-04-23 22:23:00,
2013-04-23 17:28:00,40.9,32.6,30.17,SE,138,3.7,5.9,71,0.00,,,-99.99,Meteorologica,2013-04-23 22:28:00,
2013-04-23 17:33:00,40.9,33.0,30.17,NNW,334,3.8,5.1,73,0.00,,,-99.99,Meteorologica,2013-04-23 22:33:00,
2013-04-23 17:38:00,40.8,32.1,30.17,NNE,22,5.8,9.9,70,0.00,,,-99.99,Meteorologica,2013-04-23 22:38:00,
2013-04-23 17:43:00,40.9,32.0,30.17,NNW,331,6.0,8.6,70,0.00,,,-99.99,Meteorologica,2013-04-23 22:43:00,
2013-04-23 17:48:00,40.7,32.2,30.17,North,359,6.3,11.5,71,0.00,,,-99.99,Meteorologica,2013-04-23 22:48:00,
2013-04-23 17:53:00,40.4,32.2,30.18,WSW,247,6.6,10.7,71,0.00,,,-99.99,Meteorologica,2013-04-23 22:53:00,
2013-04-23 17:58:00,40.5,31.8,30.18,NNE,22,2.1,4.5,70,0.00,,,-99.99,Meteorologica,2013-04-23 22:58:00,
2013-04-23 18:03:00,40.2,31.5,30.18,ESE,120,5.3,8.0,70,0.00,,,-99.99,Meteorologica,2013-04-23 23:03:00,
2013-04-23 18:08:00,40.3,32.0,30.18,North,359,2.2,2.2,72,0.00,,,-99.99,Meteorologica,2013-04-23 23:08:00,
2013-04-23 18:13:00,40.2,31.4,30.18,WSW,247,6.1,8.8,70,0.00,,,-99.99,Meteorologica,2013-04-23 23:13:00,
2013-04-23 18:18:00,40.2,31.9,30.18,WSW,239,3.7,5.7,71,0.00,,,-99.99,Meteorologica,2013-04-23 23:18:00,
2013-04-23 18:23:00,40.1,32.1,30.19,WSW,239,1.2,3.1,72,0.00,,,-99.99,Meteorologica,2013-04-23 23:23:00,
2013-04-23 18:28:00,40.1,32.1,30.18,NNW,345,2.7,5.5,72,0.00,,,-99.99,Meteorologica,2013-04-23 23:28:00,
2013-04-23 18:33:00,40.1,31.6,30.19,WSW,240,5.3,8.7,71,0.00,,,-99.99,Meteorologica,2013-04-23 23:33:00,
2013-04-23 18:38:00,39.9,31.2,30.18,NNE,14,5.1,7.4,70,0.00,,,-99.99,Meteorologica,2013-04-23 23:38:00,
2013-04-23 18:43:00,39.9,31.1,30.19,North,354,3.6,5.1,70,0.00,,,-99.99,Meteorologica,2013-04-23 23:43:00,
2013-04-23 18:48:00,39.8,31.6,30.19,NNW,334,0.5,0.0,72,0.00,,,-99.99,Meteorologica,2013-04-23 23:48:00,
2013-04-23 18:53:00,39.7,30.9,30.18,North,0,2.8,3.3,70,0.00,,,-99.99,Meteorologica,2013-04-23 23:53:00,
2013-04-23 18:58:00,39.5,30.9,30.19,WSW,239,4.9,8.1,71,0.00,,,-99.99,Meteorologica,2013-04-23 23:58:00,
2013-04-23 19:03:00,39.4,30.9,30.19,SE,124,5.1,5.1,71,0.00,,,-99.99,Meteorologica,2013-04-24 00:03:00,
2013-04-23 19:08:00,39.3,30.6,30.19,NNW,340,4.7,6.9,70,0.00,,,-99.99,Meteorologica,2013-04-24 00:08:00,
2013-04-23 19:13:00,39.4,31.4,30.19,North,7,4.6,5.5,72,0.00,,,-99.99,Meteorologica,2013-04-24 00:13:00,
2013-04-23 19:18:00,39.3,31.5,30.18,North,10,1.2,4.4,72,0.00,,,-99.99,Meteorologica,2013-04-24 00:18:00,
2013-04-23 19:23:00,39.0,30.2,30.18,NNE,19,6.1,8.7,69,0.00,,,-99.99,Meteorologica,2013-04-24 00:23:00,
2013-04-23 19:28:00,39.2,31.1,30.19,NNE,29,4.6,5.8,72,0.00,,,-99.99,Meteorologica,2013-04-24 00:28:00,
2013-04-23 19:33:00,39.2,31.1,30.19,NNE,24,2.2,5.6,72,0.00,,,-99.99,Meteorologica,2013-04-24 00:33:00,
2013-04-23 19:38:00,39.1,30.8,30.19,North,352,4.9,6.6,71,0.00,,,-99.99,Meteorologica,2013-04-24 00:38:00,
2013-04-23 19:43:00,39.0,30.9,30.19,North,358,3.4,5.7,72,0.00,,,-99.99,Meteorologica,2013-04-24 00:43:00,
2013-04-23 19:48:00,39.1,31.3,30.20,North,9,0.0,0.0,73,0.00,,,-99.99,Meteorologica,2013-04-24 00:48:00,
2013-04-23 19:53:00,39.0,31.4,30.19,NW,324,3.0,3.2,73,0.00,,,-99.99,Meteorologica,2013-04-24 00:53:00,
2013-04-23 19:58:00,38.8,30.8,30.19,North,0,3.0,5.8,72,0.00,,,-99.99,Meteorologica,2013-04-24 00:58:00,
2013-04-23 20:03:00,38.7,30.5,30.19,NNE,18,5.7,6.9,71,0.00,,,-99.99,Meteorologica,2013-04-24 01:03:00,
2013-04-23 20:08:00,38.6,30.7,30.20,North,349,5.8,8.1,72,0.00,,,-99.99,Meteorologica,2013-04-24 01:08:00,
2013-04-23 20:13:00,38.7,30.8,30.20,NNW,341,1.7,0.0,72,0.00,,,-99.99,Meteorologica,2013-04-24 01:13:00,
2013-04-23 20:18:00,38.5,30.2,30.21,NW,320,4.5,4.6,71,0.00,,,-99.99,Meteorologica,2013-04-24 01:18:00,
2013-04-23 20:23:00,38.5,30.3,30.20,WSW,245,3.3,5.1,71,0.00,,,-99.99,Meteorologica,2013-04-24 01:23:00,
2013-04-23 20:28:00,38.4,30.2,30.20,NNE,21,3.4,5.2,71,0.00,,,-99.99,Meteorologica,2013-04-24 01:28:00,
2013-04-23 20:33:00,38.3,30.6,30.21,North,359,0.0,0.0,73,0.00,,,-99.99,Meteorologica,2013-04-24 01:33:00,
2013-04-23 20:38:00,38.3,30.1,30.21,North,359,3.3,4.3,71,0.00,,,-99.99,Meteorologica,2013-04-24 01:38:00,
2013-04-23 20:43:00,38.1,29.9,30.20,NNE,15,5.3,9.1,72,0.00,,,-99.99,Meteorologica,2013-04-24 01:43:00,
2013-04-23 20:48:00,38.1,30.2,30.21,North,7,0.6,3.4,72,0.00,,,-99.99,Meteorologica,2013-04-24 01:48:00,
2013-04-23 20:53:00,37.9,30.7,30.22,WNW,300,2.5,0.0,75,0.00,,,-99.99,Meteorologica,2013-04-24 01:53:00,
2013-04-23 20:58:00,37.7,29.9,30.22,WSW,239,5.9,8.1,73,0.00,,,-99.99,Meteorologica,2013-04-24 01:58:00,
2013-04-23 21:03:00,37.7,29.3,30.23,NNE,22,5.5,7.9,71,0.00,,,-99.99,Meteorologica,2013-04-24 02:03:00,
2013-04-23 21:08:00,37.7,29.6,30.23,North,2,1.4,0.0,72,0.00,,,-99.99,Meteorologica,2013-04-24 02:08:00,
2013-04-23 21:13:00,37.6,29.7,30.23,NW,323,4.6,6.4,72,0.00,,,-99.99,Meteorologica,2013-04-24 02:13:00,
2013-04-23 21:18:00,37.5,29.7,30.23,NW,326,0.0,0.0,73,0.00,,,-99.99,Meteorologica,2013-04-24 02:18:00,
2013-04-23 21:24:00,37.4,29.7,30.23,NNE,14,3.7,8.1,73,0.00,,,-99.99,Meteorologica,2013-04-24 02:24:00,
2013-04-23 21:31:00,37.1,29.3,30.23,NNE,33,4.4,8.8,73,0.00,,,-99.99,Meteorologica,2013-04-24 02:31:00,
2013-04-23 21:36:00,37.1,29.7,30.24,NNW,341,5.5,8.3,73,0.00,,,-99.99,Meteorologica,2013-04-24 02:36:00,
2013-04-23 21:41:00,37.1,29.5,30.23,North,359,1.3,7.2,73,0.00,,,-99.99,Meteorologica,2013-04-24 02:41:00,
2013-04-23 21:46:00,36.9,29.1,30.24,ESE,114,5.3,9.9,72,0.00,,,-99.99,Meteorologica,2013-04-24 02:46:00,
2013-04-23 21:51:00,37.0,29.7,30.24,North,7,0.0,6.4,74,0.00,,,-99.99,Meteorologica,2013-04-24 02:51:00,
2013-04-23 21:56:00,36.8,29.6,30.24,NNW,342,3.0,6.8,74,0.00,,,-99.99,Meteorologica,2013-04-24 02:56:00,
2013-04-23 22:01:00,36.8,29.9,30.24,North,4,2.1,4.8,75,0.00,,,-99.99,Meteorologica,2013-04-24 03:01:00,
2013-04-23 22:06:00,36.7,30.3,30.24,North,4,0.0,3.4,77,0.00,,,-99.99,Meteorologica,2013-04-24 03:06:00,
2013-04-23 22:12:00,36.6,30.4,30.25,NNE,16,3.2,5.9,77,0.00,,,-99.99,Meteorologica,2013-04-24 03:12:00,
2013-04-23 22:18:00,36.4,30.6,30.25,North,3,2.6,6.8,78,0.00,,,-99.99,Meteorologica,2013-04-24 03:18:00,
2013-04-23 22:23:00,36.4,30.7,30.25,North,350,0.0,0.0,79,0.00,,,-99.99,Meteorologica,2013-04-24 03:23:00,
2013-04-23 22:29:00,36.3,30.9,30.25,North,355,0.0,0.0,80,0.00,,,-99.99,Meteorologica,2013-04-24 03:29:00,
2013-04-23 22:34:00,36.2,30.7,30.25,NW,311,1.6,4.2,80,0.00,,,-99.99,Meteorologica,2013-04-24 03:34:00,
2013-04-23 22:40:00,36.1,30.7,30.26,NW,316,0.0,0.0,80,0.00,,,-99.99,Meteorologica,2013-04-24 03:40:00,
2013-04-23 22:45:00,36.0,30.8,30.25,NW,316,0.0,0.0,81,0.00,,,-99.99,Meteorologica,2013-04-24 03:45:00,
2013-04-23 22:50:00,36.0,30.7,30.26,NW,316,0.0,0.0,80,0.00,,,-99.99,Meteorologica,2013-04-24 03:50:00,
2013-04-23 22:55:00,35.9,30.8,30.25,NW,316,0.0,0.0,81,0.00,,,-99.99,Meteorologica,2013-04-24 03:55:00,
2013-04-23 23:00:00,35.8,30.2,30.25,NW,316,0.0,0.0,80,0.00,,,-99.99,Meteorologica,2013-04-24 04:00:00,
2013-04-23 23:02:00,35.8,30.5,30.26,NW,316,0.0,0.0,80,0.00,,,-99.99,Meteorologica,2013-04-24 04:02:00,
2013-04-23 23:03:00,35.8,30.2,30.26,NW,316,0.0,0.0,79,0.00,,,-99.99,Meteorologica,2013-04-24 04:03:00,
2013-04-23 23:04:00,35.7,30.4,30.26,NW,316,0.0,0.0,80,0.00,,,-99.99,Meteorologica,2013-04-24 04:04:00,
2013-04-23 23:08:00,35.7,30.4,30.26,NW,316,0.0,0.0,80,0.00,,,-99.99,Meteorologica,2013-04-24 04:08:00,
2013-04-23 23:13:00,35.6,30.1,30.25,NW,316,0.0,0.0,80,0.00,,,-99.99,Meteorologica,2013-04-24 04:13:00,
2013-04-23 23:16:00,35.5,30.1,30.25,NW,316,0.0,0.0,80,0.00,,,-99.99,Meteorologica,2013-04-24 04:16:00,
2013-04-23 23:21:00,35.4,30.0,30.25,NW,317,0.0,3.4,80,0.00,,,-99.99,Meteorologica,2013-04-24 04:21:00,
2013-04-23 23:26:00,35.4,30.0,30.25,NW,317,0.0,0.0,80,0.00,,,-99.99,Meteorologica,2013-04-24 04:26:00,
2013-04-23 23:31:00,35.3,29.7,30.25,NW,307,1.1,6.8,79,0.00,,,-99.99,Meteorologica,2013-04-24 04:31:00,
2013-04-23 23:36:00,35.2,29.5,30.27,WNW,282,0.0,3.0,79,0.00,,,-99.99,Meteorologica,2013-04-24 04:36:00,
2013-04-23 23:41:00,35.1,29.5,30.26,WNW,302,0.0,2.4,79,0.00,,,-99.99,Meteorologica,2013-04-24 04:41:00,
2013-04-23 23:46:00,35.0,29.0,30.26,SW,231,1.2,5.2,78,0.00,,,-99.99,Meteorologica,2013-04-24 04:46:00,
2013-04-23 23:51:00,34.9,29.1,30.25,North,354,0.0,4.2,79,0.00,,,-99.99,Meteorologica,2013-04-24 04:51:00,
2013-04-23 23:56:00,34.8,29.1,30.25,North,354,0.0,0.0,79,0.00,,,-99.99,Meteorologica,2013-04-24 04:56:00,